Time;durP1;ratioP1;P1;durP2;ratioP2;P2;SDS_P1;SDS_P2;PMS_P1;PMS_P2;Temp;Humidity;BMP_temperature;BMP_pressure;BME280_temperature;BME280_humidity;BME280_pressure;Samples;Min_cycle;Max_cycle;Signal;HPM_P1;HPM_P2
2021/09/06 00:01:39;;;;;;;13.93;11.82;;;;;;;16.92;67.88;101536.47;5071277;28;20028;-49
2021/09/06 00:04:04;;;;;;;13.93;11.25;;;;;;;16.90;67.69;101537.41;5069941;28;20048;-51
2021/09/06 00:06:31;;;;;;;14.48;12.45;;;;;;;16.91;67.64;101539.16;5068890;28;20020;-51
2021/09/06 00:08:56;;;;;;;13.80;12.00;;;;;;;16.89;67.61;101543.66;5068148;28;20021;-51
2021/09/06 00:11:22;;;;;;;13.43;11.48;;;;;;;16.89;67.70;101531.22;5069224;28;20090;-51
2021/09/06 00:13:50;;;;;;;14.93;11.93;;;;;;;16.88;67.77;101532.09;5069993;28;20020;-50
2021/09/06 00:16:17;;;;;;;14.10;12.00;;;;;;;16.89;67.77;101530.31;5070707;28;20098;-50
2021/09/06 00:18:43;;;;;;;15.35;12.20;;;;;;;16.90;67.60;101529.41;5073580;28;20040;-51
2021/09/06 00:21:09;;;;;;;13.60;12.15;;;;;;;16.88;67.52;101528.56;5071149;28;20107;-50
2021/09/06 00:23:35;;;;;;;17.25;13.52;;;;;;;16.87;67.68;101530.34;5069368;28;20103;-51
2021/09/06 00:26:01;;;;;;;14.18;11.90;;;;;;;16.85;67.63;101523.31;5070460;28;20108;-53
2021/09/06 00:28:27;;;;;;;12.65;11.35;;;;;;;16.87;67.54;101521.50;5069933;28;20036;-51
2021/09/06 00:30:53;;;;;;;14.52;12.05;;;;;;;16.85;67.55;101517.97;5071549;28;20036;-51
2021/09/06 00:33:19;;;;;;;14.75;12.23;;;;;;;16.86;67.44;101522.41;5068042;28;20028;-51
2021/09/06 00:35:46;;;;;;;14.13;11.05;;;;;;;16.83;67.55;101517.13;5069060;28;20028;-52
2021/09/06 00:38:12;;;;;;;13.68;12.13;;;;;;;16.83;67.51;101525.13;5069353;28;20479;-51
2021/09/06 00:40:38;;;;;;;11.40;10.20;;;;;;;16.83;67.69;101527.78;5071591;28;20073;-50
2021/09/06 00:43:04;;;;;;;14.80;12.20;;;;;;;16.82;67.54;101523.38;5070195;28;20035;-51
2021/09/06 00:45:30;;;;;;;14.00;12.00;;;;;;;16.84;67.55;101525.09;5071840;28;20033;-50
2021/09/06 00:47:56;;;;;;;17.13;12.88;;;;;;;16.82;67.46;101518.03;5073666;28;20020;-51
2021/09/06 00:50:22;;;;;;;15.48;12.35;;;;;;;16.80;67.59;101526.97;5071891;28;20043;-51
2021/09/06 00:52:48;;;;;;;14.07;11.95;;;;;;;16.81;67.50;101522.50;5057737;28;20025;-50
2021/09/06 00:55:15;;;;;;;14.60;12.07;;;;;;;16.80;67.41;101521.63;5071314;28;20111;-51
2021/09/06 00:57:41;;;;;;;14.00;11.45;;;;;;;16.79;67.40;101524.31;5069827;28;20039;-50
2021/09/06 01:00:09;;;;;;;18.10;13.27;;;;;;;16.79;67.52;101525.22;5072309;28;20028;-50
2021/09/06 01:02:35;;;;;;;15.38;13.07;;;;;;;16.82;67.18;101523.38;5069327;28;20021;-51
2021/09/06 01:05:01;;;;;;;15.43;13.00;;;;;;;16.79;67.38;101525.22;5050689;28;20086;-50
2021/09/06 01:07:27;;;;;;;13.40;11.45;;;;;;;16.80;67.27;101532.28;5074084;28;20077;-51
2021/09/06 01:09:53;;;;;;;14.50;11.98;;;;;;;16.79;67.29;101529.66;5055056;28;20024;-51
2021/09/06 01:12:19;;;;;;;12.50;11.15;;;;;;;16.78;67.20;101528.75;5054132;28;20398;-50
2021/09/06 01:14:45;;;;;;;13.30;11.90;;;;;;;16.79;67.21;101529.66;5074084;28;20531;-51
2021/09/06 01:17:11;;;;;;;13.48;11.07;;;;;;;16.78;67.24;101523.44;5072091;28;20029;-51
2021/09/06 01:19:38;;;;;;;15.50;12.60;;;;;;;16.78;67.07;101527.91;5071039;28;20378;-51
2021/09/06 01:22:07;;;;;;;14.85;11.55;;;;;;;16.76;67.27;101529.72;5069863;28;20031;-51
2021/09/06 01:24:34;;;;;;;11.55;10.35;;;;;;;16.75;67.08;101533.28;5074557;28;20516;-51
2021/09/06 01:26:59;;;;;;;13.52;10.77;;;;;;;16.75;67.27;101531.50;5073139;28;20020;-50
2021/09/06 01:29:26;;;;;;;12.73;10.43;;;;;;;16.75;67.04;101539.50;5074051;28;20055;-51
2021/09/06 01:31:51;;;;;;;14.00;11.07;;;;;;;16.74;67.07;101537.72;5076852;28;20055;-51
2021/09/06 01:34:17;;;;;;;13.02;10.73;;;;;;;16.70;67.32;101529.84;5071741;28;20522;-52
2021/09/06 01:36:43;;;;;;;13.65;11.73;;;;;;;16.72;67.08;101534.25;5059026;28;20028;-51
2021/09/06 01:39:09;;;;;;;11.63;9.88;;;;;;;16.72;67.23;101538.69;5075128;28;20100;-52
2021/09/06 01:41:35;;;;;;;11.05;9.75;;;;;;;16.72;67.09;101534.25;5042983;28;20090;-51
2021/09/06 01:44:02;;;;;;;12.10;9.98;;;;;;;16.70;67.33;101527.19;5071971;28;20024;-51
2021/09/06 01:46:32;;;;;;;11.95;10.32;;;;;;;16.68;67.34;101538.75;5060375;28;20402;-51
2021/09/06 01:48:58;;;;;;;11.88;10.32;;;;;;;16.68;67.17;101538.75;5074233;28;20431;-51
2021/09/06 01:51:25;;;;;;;13.32;10.02;;;;;;;16.69;67.06;101536.97;5072650;28;20033;-51
2021/09/06 01:53:52;;;;;;;11.20;8.93;;;;;;;16.67;67.22;101531.66;5072038;28;20600;-51
2021/09/06 01:56:18;;;;;;;12.23;10.23;;;;;;;16.67;67.12;101534.31;5074551;28;20020;-51
2021/09/06 01:58:44;;;;;;;12.60;9.82;;;;;;;16.66;67.12;101534.34;5040992;28;20035;-50
2021/09/06 02:01:10;;;;;;;10.48;9.38;;;;;;;16.67;66.90;101536.09;5072006;28;20036;-51
2021/09/06 02:03:36;;;;;;;11.07;9.02;;;;;;;16.68;67.01;101540.53;5055977;28;20123;-51
2021/09/06 02:06:02;;;;;;;11.38;9.75;;;;;;;16.64;67.06;101544.19;5056250;28;20162;-51
2021/09/06 02:08:28;;;;;;;12.05;10.30;;;;;;;16.65;67.13;101537.94;5073232;28;20020;-50
2021/09/06 02:10:54;;;;;;;10.15;8.93;;;;;;;16.65;66.90;101548.59;5072665;28;20028;-51
2021/09/06 02:13:21;;;;;;;10.23;8.98;;;;;;;16.62;67.09;101541.53;5072408;28;20031;-51
2021/09/06 02:15:47;;;;;;;12.10;10.13;;;;;;;16.61;66.99;101541.56;5071758;28;20080;-50
2021/09/06 02:18:13;;;;;;;10.80;9.68;;;;;;;16.62;67.03;101540.66;5072484;28;20448;-51
2021/09/06 02:20:39;;;;;;;11.93;9.38;;;;;;;16.62;67.09;101548.66;5077350;28;20032;-51
2021/09/06 02:23:05;;;;;;;10.35;9.10;;;;;;;16.59;67.10;101548.69;5056772;28;20032;-50
2021/09/06 02:25:31;;;;;;;11.30;9.70;;;;;;;16.60;67.01;101550.47;5077445;28;20402;-51
2021/09/06 02:27:57;;;;;;;11.93;9.15;;;;;;;16.58;66.91;101542.53;5060005;28;20017;-51
2021/09/06 02:30:23;;;;;;;13.63;10.77;;;;;;;16.59;67.11;101548.69;5077669;28;20036;-50
2021/09/06 02:32:48;;;;;;;10.93;9.25;;;;;;;16.58;66.96;101549.63;5072392;28;20025;-52
2021/09/06 02:35:14;;;;;;;10.68;9.00;;;;;;;16.60;66.89;101546.00;5070680;28;20047;-50
2021/09/06 02:37:40;;;;;;;11.18;9.32;;;;;;;16.61;66.89;101552.22;5056502;28;20078;-51
2021/09/06 02:40:07;;;;;;;11.60;9.63;;;;;;;16.61;66.75;101553.09;5074697;28;20462;-51
2021/09/06 02:42:32;;;;;;;11.23;9.55;;;;;;;16.58;66.80;101552.28;5071748;28;20025;-51
2021/09/06 02:44:59;;;;;;;11.95;9.10;;;;;;;16.57;66.77;101551.41;5070000;28;20047;-50
2021/09/06 02:47:25;;;;;;;11.13;9.20;;;;;;;16.55;66.93;101551.44;5054816;28;20059;-50
2021/09/06 02:49:50;;;;;;;11.07;9.27;;;;;;;16.53;66.85;101545.28;5056971;28;20474;-51
2021/09/06 02:52:16;;;;;;;11.70;8.88;;;;;;;16.53;67.07;101545.28;5072960;28;20039;-51
2021/09/06 02:54:42;;;;;;;10.55;9.30;;;;;;;16.49;66.85;101538.25;5071111;28;20028;-50
2021/09/06 02:57:08;;;;;;;11.95;9.40;;;;;;;16.49;66.93;101537.38;5072565;28;20017;-52
2021/09/06 02:59:34;;;;;;;10.40;9.25;;;;;;;16.47;67.02;101534.72;5071079;28;20036;-54
2021/09/06 03:01:59;;;;;;;10.55;8.80;;;;;;;16.45;67.15;101531.25;5070641;28;20031;-50
2021/09/06 03:04:25;;;;;;;10.65;8.68;;;;;;;16.44;67.05;101536.59;5070876;28;20070;-50
2021/09/06 03:06:51;;;;;;;10.13;8.57;;;;;;;16.42;67.21;101537.50;5071261;28;20035;-51
2021/09/06 03:09:17;;;;;;;9.63;8.38;;;;;;;16.39;67.17;101534.00;5072437;28;20063;-50
2021/09/06 03:11:43;;;;;;;10.35;8.48;;;;;;;16.40;67.10;101538.41;5056483;28;20035;-51
2021/09/06 03:14:08;;;;;;;10.88;9.18;;;;;;;16.40;67.18;101533.09;5069076;28;20496;-51
2021/09/06 03:16:34;;;;;;;10.55;9.45;;;;;;;16.38;67.21;101535.78;5074289;28;20115;-51
2021/09/06 03:19:00;;;;;;;9.82;8.65;;;;;;;16.37;67.08;101533.19;5071042;28;20066;-51
2021/09/06 03:21:26;;;;;;;11.88;9.38;;;;;;;16.36;67.21;101529.63;5070850;28;20078;-51
2021/09/06 03:23:53;;;;;;;11.73;8.90;;;;;;;16.35;67.15;101530.56;5053760;28;20028;-51
2021/09/06 03:26:19;;;;;;;10.60;9.07;;;;;;;16.33;67.16;101521.69;5069398;28;20733;-51
2021/09/06 03:28:45;;;;;;;11.35;9.40;;;;;;;16.33;67.25;101523.47;5071761;28;20095;-52
2021/09/06 03:31:11;;;;;;;10.77;8.75;;;;;;;16.33;67.34;101526.13;5070376;28;20048;-51
2021/09/06 03:33:37;;;;;;;11.98;9.88;;;;;;;16.33;67.33;101520.81;5071105;28;20093;-54
2021/09/06 03:36:04;;;;;;;11.18;8.93;;;;;;;16.31;67.27;101514.66;5070013;28;20399;-51
2021/09/06 03:38:29;;;;;;;13.50;10.50;;;;;;;16.31;67.25;101523.53;5069280;28;20378;-51
2021/09/06 03:40:55;;;;;;;9.57;8.52;;;;;;;16.30;67.40;101527.06;5055395;28;20509;-51
2021/09/06 03:43:21;;;;;;;12.32;9.65;;;;;;;16.29;67.38;101526.22;5067283;28;20032;-52
2021/09/06 03:45:47;;;;;;;11.65;9.02;;;;;;;16.28;67.29;101521.78;5069162;28;20071;-50
2021/09/06 03:48:13;;;;;;;11.23;9.90;;;;;;;16.27;67.27;101522.69;5069681;28;20025;-51
2021/09/06 03:50:39;;;;;;;11.27;9.35;;;;;;;16.26;67.23;101520.94;5067737;28;20036;-51
2021/09/06 03:53:04;;;;;;;11.18;8.45;;;;;;;16.25;67.36;101516.53;5070342;28;20028;-51
2021/09/06 03:55:30;;;;;;;13.15;9.57;;;;;;;16.25;67.40;101521.88;5069205;28;20115;-51
2021/09/06 03:57:56;;;;;;;10.98;8.93;;;;;;;16.23;67.27;101515.69;5068141;28;20393;-52
2021/09/06 04:00:22;;;;;;;12.00;9.75;;;;;;;16.23;67.57;101515.69;5051161;28;20035;-51
2021/09/06 04:02:48;;;;;;;10.43;9.30;;;;;;;16.23;67.52;101520.13;5034425;28;20486;-51
2021/09/06 04:05:14;;;;;;;9.40;8.38;;;;;;;16.23;67.41;101514.78;5048873;28;20065;-50
2021/09/06 04:07:39;;;;;;;10.20;8.85;;;;;;;16.22;67.40;101524.59;5069833;28;20016;-51
2021/09/06 04:10:06;;;;;;;10.25;8.82;;;;;;;16.20;67.56;101515.75;5070166;28;20109;-51
2021/09/06 04:12:32;;;;;;;11.02;8.45;;;;;;;16.20;67.37;101523.72;5069154;28;20028;-51
2021/09/06 04:14:57;;;;;;;10.38;8.43;;;;;;;16.19;67.47;101519.31;5069493;28;20504;-51
2021/09/06 04:17:23;;;;;;;9.32;8.10;;;;;;;16.18;67.44;101522.88;5067989;28;20029;-51
2021/09/06 04:19:49;;;;;;;10.32;8.77;;;;;;;16.18;67.55;101533.53;5052792;28;20024;-51
2021/09/06 04:22:15;;;;;;;12.35;9.52;;;;;;;16.17;67.70;101537.09;5070100;28;20016;-51
2021/09/06 04:24:40;;;;;;;10.00;8.15;;;;;;;16.17;67.41;101537.09;5069447;28;20039;-50
2021/09/06 04:27:06;;;;;;;9.18;8.18;;;;;;;16.15;67.61;101539.75;5068988;28;20027;-51
2021/09/06 04:29:32;;;;;;;8.68;7.68;;;;;;;16.15;67.53;101536.25;5053468;28;20025;-51
2021/09/06 04:31:58;;;;;;;9.02;8.13;;;;;;;16.15;67.59;101538.91;5056344;28;20375;-50
2021/09/06 04:34:24;;;;;;;9.60;8.60;;;;;;;16.14;67.55;101537.16;5069396;28;20488;-51
2021/09/06 04:36:49;;;;;;;10.10;8.40;;;;;;;16.13;67.65;101546.03;5069456;28;20028;-51
2021/09/06 04:39:15;;;;;;;9.30;7.68;;;;;;;16.12;67.39;101541.63;5070416;28;20092;-50
2021/09/06 04:41:41;;;;;;;10.82;8.73;;;;;;;16.12;67.56;101545.16;5065845;28;20021;-51
2021/09/06 04:44:07;;;;;;;9.13;8.23;;;;;;;16.10;67.57;101538.09;5069374;28;20078;-51
2021/09/06 04:46:32;;;;;;;8.98;8.07;;;;;;;16.11;67.45;101538.06;5069901;28;20086;-49
2021/09/06 04:48:58;;;;;;;8.38;7.47;;;;;;;16.10;67.41;101551.41;5068636;28;20024;-50
2021/09/06 04:51:24;;;;;;;8.38;7.50;;;;;;;16.10;67.53;101556.72;5069573;28;20391;-51
2021/09/06 04:53:50;;;;;;;8.88;7.47;;;;;;;16.08;67.47;101547.91;5069599;28;20024;-51
2021/09/06 04:56:16;;;;;;;9.55;7.68;;;;;;;16.07;67.34;101557.66;5069025;28;20498;-49
2021/09/06 04:58:41;;;;;;;8.23;7.40;;;;;;;16.07;67.36;101556.81;5073186;28;20057;-51
2021/09/06 05:01:07;;;;;;;9.52;7.43;;;;;;;16.06;67.40;101555.03;5073268;28;20028;-51
2021/09/06 05:03:33;;;;;;;9.07;8.18;;;;;;;16.05;67.43;101554.16;5072899;28;20028;-50
2021/09/06 05:05:59;;;;;;;7.53;6.72;;;;;;;16.06;67.32;101558.56;5073252;28;20028;-51
2021/09/06 05:08:28;;;;;;;8.00;7.20;;;;;;;16.05;67.44;101547.97;5073243;28;20436;-51
2021/09/06 05:10:54;;;;;;;8.45;7.60;;;;;;;16.02;67.37;101560.44;5072228;28;20097;-51
2021/09/06 05:13:20;;;;;;;8.77;7.47;;;;;;;16.04;67.25;101568.34;5071586;28;20509;-51
2021/09/06 05:15:46;;;;;;;8.45;7.35;;;;;;;16.02;67.35;101564.84;5072147;28;20078;-50
2021/09/06 05:18:12;;;;;;;9.65;7.93;;;;;;;16.00;67.30;101567.53;5073495;28;20021;-51
2021/09/06 05:20:38;;;;;;;8.93;7.20;;;;;;;16.01;67.27;101574.63;5058514;28;20028;-51
2021/09/06 05:23:04;;;;;;;7.75;7.03;;;;;;;16.00;67.35;101583.50;5072922;28;20024;-52
2021/09/06 05:25:30;;;;;;;8.32;7.53;;;;;;;16.00;67.35;101580.84;5072314;28;20043;-51
2021/09/06 05:27:56;;;;;;;7.85;7.03;;;;;;;15.98;67.35;101588.00;5073189;28;20028;-50
2021/09/06 05:30:22;;;;;;;9.32;8.32;;;;;;;15.98;67.26;101580.00;5057256;28;20090;-53
2021/09/06 05:32:48;;;;;;;8.38;7.50;;;;;;;15.98;67.24;101595.97;5072591;28;20028;-51
2021/09/06 05:35:14;;;;;;;8.10;7.30;;;;;;;15.97;67.12;101594.19;5072917;28;20035;-50
2021/09/06 05:37:40;;;;;;;8.55;7.65;;;;;;;15.97;67.32;101601.31;5073227;28;20024;-51
2021/09/06 05:40:06;;;;;;;8.15;6.90;;;;;;;15.96;67.36;101597.78;5072260;28;20032;-51
2021/09/06 05:42:32;;;;;;;8.05;7.25;;;;;;;15.96;67.32;101603.09;5071811;28;20040;-52
2021/09/06 05:44:58;;;;;;;9.15;7.60;;;;;;;15.95;67.24;101601.34;5071089;28;20028;-51
2021/09/06 05:47:24;;;;;;;8.02;7.18;;;;;;;15.95;67.25;101605.75;5055289;28;20625;-50
2021/09/06 05:49:50;;;;;;;8.15;7.30;;;;;;;15.94;67.30;101607.50;5072755;28;20016;-50
2021/09/06 05:52:15;;;;;;;10.23;7.68;;;;;;;15.93;67.29;101608.44;5072929;28;20027;-50
2021/09/06 05:54:42;;;;;;;8.63;7.72;;;;;;;15.93;67.19;101611.09;5072568;28;20069;-50
2021/09/06 05:57:07;;;;;;;7.90;7.10;;;;;;;15.91;67.22;101608.44;5072971;28;20028;-50
2021/09/06 05:59:34;;;;;;;7.90;7.10;;;;;;;15.91;67.35;101611.09;5072363;28;20504;-50
2021/09/06 06:01:59;;;;;;;7.85;7.05;;;;;;;15.92;67.43;101609.34;5054469;28;20021;-50
2021/09/06 06:04:26;;;;;;;7.78;7.07;;;;;;;15.91;67.29;101604.94;5072543;28;20023;-51
2021/09/06 06:06:51;;;;;;;8.68;7.57;;;;;;;15.90;67.21;101619.09;5072719;28;21895;-50
2021/09/06 06:09:17;;;;;;;9.38;8.30;;;;;;;15.90;67.48;101617.34;5071063;28;20031;-52
2021/09/06 06:11:43;;;;;;;7.88;7.07;;;;;;;15.89;67.33;101609.38;5068265;28;20443;-51
2021/09/06 06:14:09;;;;;;;8.20;7.40;;;;;;;15.90;67.48;101616.44;5071501;28;20029;-51
2021/09/06 06:16:35;;;;;;;9.18;7.65;;;;;;;15.89;67.24;101612.03;5056648;28;20424;-51
2021/09/06 06:19:01;;;;;;;9.60;8.05;;;;;;;15.90;67.35;101613.78;5072688;28;20021;-50
2021/09/06 06:21:28;;;;;;;8.35;7.35;;;;;;;15.88;67.47;101615.63;5072363;28;20107;-50
2021/09/06 06:23:54;;;;;;;8.65;7.78;;;;;;;15.89;67.38;101620.03;5071249;28;20142;-51
2021/09/06 06:26:20;;;;;;;7.53;6.75;;;;;;;15.90;67.43;101619.09;5068451;28;20029;-51
2021/09/06 06:28:45;;;;;;;10.27;8.13;;;;;;;15.92;67.38;101619.97;5072135;28;20115;-51
2021/09/06 06:31:11;;;;;;;9.95;8.68;;;;;;;15.89;67.36;101612.94;5057506;28;20040;-50
2021/09/06 06:33:37;;;;;;;8.20;7.40;;;;;;;15.90;67.29;101624.44;5071933;28;20017;-51
2021/09/06 06:36:04;;;;;;;8.43;7.50;;;;;;;15.90;67.36;101625.31;5072268;28;20033;-51
2021/09/06 06:38:31;;;;;;;10.15;7.47;;;;;;;15.90;67.33;101635.06;5056382;28;20028;-50
2021/09/06 06:40:57;;;;;;;8.38;7.47;;;;;;;15.89;67.64;101628.00;5071460;28;20035;-51
2021/09/06 06:43:23;;;;;;;7.47;6.65;;;;;;;15.88;67.47;101631.56;5070689;28;20059;-51
2021/09/06 06:45:49;;;;;;;9.57;7.85;;;;;;;15.86;67.68;101628.94;5071243;28;20048;-50
2021/09/06 06:48:15;;;;;;;8.50;7.60;;;;;;;15.86;67.67;101620.06;5071906;28;20024;-50
2021/09/06 06:50:41;;;;;;;9.63;8.25;;;;;;;15.85;67.82;101628.97;5056723;28;20602;-51
2021/09/06 06:53:07;;;;;;;9.98;8.20;;;;;;;15.86;67.73;101622.72;5071515;28;20051;-51
2021/09/06 06:55:33;;;;;;;8.93;8.02;;;;;;;15.85;67.75;101626.28;5070583;28;20384;-51
2021/09/06 06:57:59;;;;;;;9.23;7.50;;;;;;;15.84;67.96;101624.56;5071422;28;20016;-50
2021/09/06 07:00:24;;;;;;;8.32;7.53;;;;;;;15.83;67.83;101625.44;5071107;28;20625;-51
2021/09/06 07:02:51;;;;;;;9.57;8.35;;;;;;;15.84;67.95;101636.03;5071063;28;20029;-49
2021/09/06 07:05:17;;;;;;;9.82;8.63;;;;;;;15.84;67.96;101636.03;5067783;28;20107;-50
2021/09/06 07:07:43;;;;;;;8.73;7.82;;;;;;;15.84;67.91;101636.03;5055070;28;20035;-51
2021/09/06 07:10:10;;;;;;;10.80;8.60;;;;;;;15.83;67.94;101628.97;5071759;28;20024;-51
2021/09/06 07:12:36;;;;;;;10.13;8.43;;;;;;;15.84;68.00;101630.72;5070431;28;20020;-51
2021/09/06 07:15:03;;;;;;;10.45;9.38;;;;;;;15.85;67.95;101631.63;5067916;28;20020;-51
2021/09/06 07:17:29;;;;;;;9.73;8.60;;;;;;;15.83;67.95;101634.31;5071315;28;20091;-50
2021/09/06 07:19:55;;;;;;;9.35;7.82;;;;;;;15.84;68.05;101635.19;5070384;28;20029;-51
2021/09/06 07:22:22;;;;;;;10.38;8.02;;;;;;;15.85;68.09;101628.97;5071122;28;20482;-51
2021/09/06 07:24:48;;;;;;;9.68;8.60;;;;;;;15.83;68.02;101623.66;5070960;28;20033;-51
2021/09/06 07:27:15;;;;;;;9.60;8.40;;;;;;;15.85;67.98;101634.28;5070610;28;20048;-50
2021/09/06 07:29:41;;;;;;;11.85;8.85;;;;;;;15.87;68.09;101641.31;5070821;28;20035;-51
2021/09/06 07:32:07;;;;;;;9.68;8.30;;;;;;;15.84;68.26;101640.50;5070506;28;20059;-50
2021/09/06 07:34:35;;;;;;;9.40;7.78;;;;;;;15.82;68.14;101634.31;5070254;28;20078;-51
2021/09/06 07:37:05;;;;;;;10.65;8.77;;;;;;;15.84;68.22;101640.50;5070803;28;20028;-50
2021/09/06 07:39:32;;;;;;;9.18;7.88;;;;;;;15.83;68.19;101636.06;5071673;28;20481;-51
2021/09/06 07:41:59;;;;;;;9.20;7.70;;;;;;;15.85;68.52;101636.94;5069891;28;20355;-51
2021/09/06 07:44:25;;;;;;;10.88;8.10;;;;;;;15.85;68.21;101642.25;5070163;28;20103;-50
2021/09/06 07:46:52;;;;;;;10.45;8.50;;;;;;;15.84;68.19;101643.16;5070534;28;20360;-51
2021/09/06 07:49:18;;;;;;;11.25;8.95;;;;;;;15.85;68.15;101643.16;5069777;28;20363;-50
2021/09/06 07:51:51;;;;;;;10.57;8.90;;;;;;;15.85;68.17;101645.81;5070473;28;20025;-51
2021/09/06 07:54:21;;;;;;;9.77;7.93;;;;;;;15.83;68.44;101649.38;5070461;28;20022;-51
2021/09/06 07:56:48;;;;;;;11.52;9.20;;;;;;;15.82;68.24;101640.53;5056520;28;20023;-50
2021/09/06 07:59:17;;;;;;;9.73;8.50;;;;;;;15.80;68.35;101637.00;5070418;28;20026;-50
2021/09/06 08:01:44;;;;;;;8.68;7.78;;;;;;;15.84;68.34;101641.38;5069759;28;20521;-51
2021/09/06 08:04:10;;;;;;;8.77;7.90;;;;;;;15.83;68.44;101633.41;5070204;28;20028;-51
2021/09/06 08:06:36;;;;;;;10.43;8.65;;;;;;;15.83;68.53;101644.03;5070236;28;20027;-51
2021/09/06 08:09:03;;;;;;;9.63;8.63;;;;;;;15.83;68.28;101644.03;5070414;28;20115;-50
2021/09/06 08:11:29;;;;;;;9.30;7.70;;;;;;;15.84;68.43;101640.50;5068954;28;20521;-52
2021/09/06 08:13:55;;;;;;;9.27;7.80;;;;;;;15.83;68.58;101638.72;5068777;28;20024;-52
2021/09/06 08:16:20;;;;;;;8.90;7.63;;;;;;;15.83;68.50;101638.72;5069903;28;20028;-51
2021/09/06 08:18:46;;;;;;;11.15;8.55;;;;;;;15.81;68.43;101636.13;5070163;28;20017;-51
2021/09/06 08:21:12;;;;;;;10.52;8.98;;;;;;;15.82;68.61;101648.50;5070184;28;20024;-51
2021/09/06 08:23:38;;;;;;;10.77;8.05;;;;;;;15.82;68.53;101648.50;5054562;28;20020;-51
2021/09/06 08:26:05;;;;;;;8.68;7.78;;;;;;;15.83;68.72;101639.63;5053000;28;20031;-50
2021/09/06 08:28:31;;;;;;;8.63;7.43;;;;;;;15.81;68.63;101646.75;5055440;28;20099;-50
2021/09/06 08:30:57;;;;;;;10.13;8.48;;;;;;;15.82;68.69;101650.28;5069287;28;20107;-51
2021/09/06 08:33:22;;;;;;;9.25;8.35;;;;;;;15.82;68.70;101642.28;5069750;28;20056;-51
2021/09/06 08:35:48;;;;;;;10.07;8.57;;;;;;;15.82;68.73;101644.97;5069838;28;20107;-50
2021/09/06 08:38:15;;;;;;;12.18;8.25;;;;;;;15.84;68.70;101651.16;5069952;28;20027;-51
2021/09/06 08:40:41;;;;;;;10.77;8.18;;;;;;;15.82;68.81;101663.56;5068754;28;20117;-51
2021/09/06 08:43:07;;;;;;;10.57;8.38;;;;;;;15.83;68.81;101652.03;5069447;28;20020;-52
2021/09/06 08:45:34;;;;;;;10.48;8.63;;;;;;;15.83;68.86;101654.69;5069091;28;20127;-51
2021/09/06 08:48:00;;;;;;;10.07;8.43;;;;;;;15.83;68.77;101650.25;5069325;28;20025;-50
2021/09/06 08:50:26;;;;;;;9.60;8.18;;;;;;;15.83;68.95;101652.03;5070004;28;20107;-51
2021/09/06 08:52:52;;;;;;;10.27;8.60;;;;;;;15.83;68.86;101660.00;5069671;28;20100;-51
2021/09/06 08:55:18;;;;;;;8.38;7.55;;;;;;;15.83;68.89;101654.69;5069426;28;20486;-51
2021/09/06 08:57:44;;;;;;;9.40;8.40;;;;;;;15.85;68.98;101653.78;5069732;28;20024;-51
2021/09/06 09:00:11;;;;;;;10.95;9.27;;;;;;;15.85;68.84;101655.56;5032589;28;20052;-51
2021/09/06 09:02:37;;;;;;;9.85;8.80;;;;;;;15.84;68.90;101656.47;5055808;28;20094;-51
2021/09/06 09:05:08;;;;;;;10.57;8.20;;;;;;;15.84;68.79;101651.16;5054575;28;20029;-50
2021/09/06 09:07:34;;;;;;;;;;;;;;;15.86;68.82;101654.66;5069744;28;20036;-51
2021/09/06 09:10:01;;;;;;;9.35;8.30;;;;;;;15.85;69.12;101650.25;5052145;28;19977;-51
2021/09/06 09:12:28;;;;;;;11.18;9.15;;;;;;;15.86;69.21;101657.31;5068344;28;20478;-51
2021/09/06 09:14:59;;;;;;;11.35;9.85;;;;;;;15.86;69.27;101657.31;5069277;28;20033;-51
2021/09/06 09:17:25;;;;;;;;;;;;;;;15.85;69.37;101659.09;5068049;28;20020;-51
2021/09/06 09:19:52;;;;;;;13.43;9.43;;;;;;;15.86;69.34;101657.31;5069095;28;19927;-51
2021/09/06 09:22:20;;;;;;;12.60;10.13;;;;;;;15.87;69.42;101645.78;5069304;28;20521;-51
2021/09/06 09:24:58;;;;;;;12.13;9.77;;;;;;;15.88;69.51;101647.53;5055510;28;20031;-49
2021/09/06 09:27:34;;;;;;;14.50;11.23;;;;;;;15.87;69.51;101645.78;5068835;28;20028;-50
2021/09/06 09:30:01;;;;;;;13.80;10.10;;;;;;;15.87;69.83;101645.78;5069529;28;20042;-50
2021/09/06 09:32:27;;;;;;;10.80;9.30;;;;;;;15.87;69.59;101646.66;5069494;28;20416;-50
2021/09/06 09:34:53;;;;;;;12.75;10.63;;;;;;;15.86;69.88;101649.31;5069043;28;20024;-51
2021/09/06 09:37:27;;;;;;;14.75;10.23;;;;;;;15.88;69.68;101651.06;5052329;28;20035;-51
2021/09/06 09:39:57;;;;;;;10.85;9.40;;;;;;;15.88;69.49;101653.72;5068332;28;20024;-51
2021/09/06 09:42:24;;;;;;;11.87;10.63;;;;;;;15.89;69.73;101649.28;5052381;28;20040;-51
2021/09/06 09:44:55;;;;;;;12.85;10.18;;;;;;;15.90;69.61;101648.38;5069308;28;20021;-52
2021/09/06 09:47:23;;;;;;;;;;;;;;;15.91;69.51;101642.16;5072466;28;20032;-50
2021/09/06 09:49:57;;;;;;;15.40;11.68;;;;;;;15.89;69.50;101636.88;5072805;28;19916;-51
2021/09/06 09:52:24;;;;;;;14.20;10.25;;;;;;;15.91;69.45;101636.84;5072925;28;20028;-50
2021/09/06 09:54:53;;;;;;;15.43;10.80;;;;;;;15.89;69.56;101628.00;5072620;28;20020;-50
2021/09/06 09:57:20;;;;;;;15.45;11.57;;;;;;;15.89;69.47;101638.63;5072675;28;20029;-50
2021/09/06 09:59:45;;;;;;;17.92;12.00;;;;;;;15.91;69.66;101631.53;5072825;28;20019;-51
2021/09/06 10:02:20;;;;;;;13.32;11.07;;;;;;;15.91;69.35;101626.22;5069972;28;20021;-51
2021/09/06 10:04:52;;;;;;;13.70;11.05;;;;;;;15.89;69.46;101633.31;5067289;28;20036;-51
2021/09/06 10:07:19;;;;;;;13.15;11.02;;;;;;;15.90;69.45;101620.00;5069955;28;20486;-50
2021/09/06 10:09:47;;;;;;;13.93;11.02;;;;;;;15.90;69.34;101625.31;5072750;28;20025;-51
2021/09/06 10:12:24;;;;;;;14.43;12.60;;;;;;;15.93;69.56;101623.53;5071788;28;20035;-51
2021/09/06 10:15:01;;;;;;;13.90;11.05;;;;;;;15.94;69.39;101626.13;5057365;28;20437;-51
2021/09/06 10:17:34;;;;;;;14.73;11.82;;;;;;;15.96;69.43;101623.47;5070054;28;20378;-51
2021/09/06 10:20:25;;;;;;;14.00;11.32;;;;;;;15.95;69.51;101625.28;5069885;28;20036;-49
2021/09/06 10:23:08;;;;;;;12.88;11.52;;;;;;;15.94;69.26;101612.84;5062060;28;20154;-51
2021/09/06 10:25:38;;;;;;;16.23;12.10;;;;;;;15.95;69.28;101617.31;5070008;28;20529;-51
2021/09/06 10:28:05;;;;;;;12.77;11.40;;;;;;;15.96;69.19;101615.50;5069296;28;20037;-51
2021/09/06 10:30:48;;;;;;;14.55;11.60;;;;;;;15.98;69.29;101606.63;5072225;28;20450;-51
2021/09/06 10:33:40;;;;;;;15.43;11.63;;;;;;;15.99;69.22;101613.69;5070583;28;20021;-51
2021/09/06 10:36:10;;;;;;;12.70;11.40;;;;;;;15.99;69.19;101613.69;5053065;28;20036;-50
2021/09/06 10:38:50;;;;;;;12.60;11.23;;;;;;;15.98;69.15;101609.28;5071782;28;20456;-50
2021/09/06 10:41:21;;;;;;;11.95;10.35;;;;;;;16.00;68.90;101604.78;5066724;28;20086;-50
2021/09/06 10:43:49;;;;;;;12.88;10.57;;;;;;;16.01;69.04;101605.69;5071605;28;20016;-50
2021/09/06 10:46:16;;;;;;;14.95;11.50;;;;;;;16.01;69.19;101603.88;5056373;28;20033;-50
2021/09/06 10:48:42;;;;;;;13.18;10.43;;;;;;;16.02;68.98;101602.09;5071376;28;20028;-51
2021/09/06 10:51:09;;;;;;;12.82;11.32;;;;;;;16.01;69.24;101601.22;5055582;28;20032;-51
2021/09/06 10:53:37;;;;;;;12.77;11.32;;;;;;;16.03;69.19;101604.75;5055214;28;20043;-52
2021/09/06 10:56:05;;;;;;;15.20;11.15;;;;;;;16.05;69.11;101601.16;5071052;28;20051;-52
2021/09/06 10:58:31;;;;;;;12.73;11.38;;;;;;;16.05;68.97;101604.72;5069308;28;20016;-50
2021/09/06 11:00:59;;;;;;;13.82;11.55;;;;;;;16.04;69.09;101589.63;5055816;28;20474;-50
2021/09/06 11:03:31;;;;;;;13.93;11.77;;;;;;;16.06;68.86;101602.91;5071570;28;20020;-50
2021/09/06 11:05:58;;;;;;;13.82;11.63;;;;;;;16.06;69.17;101601.16;5055030;28;20029;-51
2021/09/06 11:08:44;;;;;;;13.40;11.38;;;;;;;16.08;69.04;101598.47;5070316;28;20024;-51
2021/09/06 11:11:10;;;;;;;16.17;11.50;;;;;;;16.09;69.13;101594.88;5055464;28;20032;-51
2021/09/06 11:13:37;;;;;;;15.57;11.48;;;;;;;16.07;69.00;101588.72;5071119;28;20027;-51
2021/09/06 11:16:05;;;;;;;14.85;11.27;;;;;;;16.08;68.99;101586.06;5069529;28;20040;-51